MSC Luisa — H9XU — position and weather

sailwx.info

Track history (hours):
 
Tides and Currents Weather Stations Pressure Air Temp Water Temp Dewpoint Dewpoint Depression Visibility Wind Speed Wind Dir Waves Ship Positions

MSC Luisa

Last reported at 2014-Sep-19 15:13 UTC. Time now 2014-Sep-20 10:01 UTC.
Position N 41°09' E 029°04'.

Length 300 m; draft 9.2 m.

Type: Ship. MMSI: 355308000.

Date/timePositionNaut miles runAvg speedWind from/ knotsBaromVisibWave heightAir tempDewpointWater temp
2014-Sep-19 15:13N 41°09' E 029°04'710.6
2014-Sep-19 14:32N 41°02' E 029°00'9 9.6
2014-Sep-19 13:33N 40°53' E 028°55'7 7.3
2014-Sep-19 12:32N 40°50' E 028°46'26414.7
2014-Sep-18 18:33N 37°52' E 024°35'1717.5
2014-Sep-18 17:33N 37°35' E 024°27'1717.4
2014-Sep-18 16:33N 37°20' E 024°16'1717.5
2014-Sep-18 15:34N 37°04' E 024°07'1817.2
2014-Sep-18 14:32N 36°48' E 023°58'1717.0
2014-Sep-18 13:33N 36°39' E 023°41'49715.9
2014-Sep-17 06:14N 39°44' E 013°54'21117.5
2014-Sep-16 18:11N 42°16' E 010°39'1418.0
2014-Sep-16 17:25N 42°27' E 010°27'2317.6
2014-Sep-16 16:05N 42°44' E 010°05'917.2
2014-Sep-16 15:33N 42°53' E 010°04'1818.4
2014-Sep-16 14:33N 43°11' E 010°09'1818.2
2014-Sep-16 13:33N 43°29' E 010°13'7 6.9
2014-Sep-16 12:33N 43°34' E 010°18'0 0.0
2014-Sep-16 11:33N 43°34' E 010°18'0 0.0
2014-Sep-16 10:31N 43°34' E 010°18'0 0.0
2014-Sep-16 09:33N 43°34' E 010°18'0 0.0
2014-Sep-16 08:33N 43°34' E 010°18'0 0.0
2014-Sep-16 07:32N 43°34' E 010°18'0 0.0
2014-Sep-16 06:32N 43°34' E 010°18'0 0.2
2014-Sep-16 05:33N 43°34' E 010°19'5 4.6
2014-Sep-16 04:33N 43°30' E 010°16'0 0.2
2014-Sep-16 03:31N 43°30' E 010°16'0 0.0
2014-Sep-16 02:33N 43°30' E 010°16'0 0.0
2014-Sep-16 01:33N 43°30' E 010°16'0 0.0
2014-Sep-16 00:33N 43°30' E 010°16'0 0.0
2014-Sep-15 23:32N 43°30' E 010°16'0 0.0
2014-Sep-15 22:32N 43°30' E 010°16'0 0.0
2014-Sep-15 21:31N 43°30' E 010°16'0 0.0
2014-Sep-15 20:31N 43°30' E 010°16'2 2.3
2014-Sep-15 19:33N 43°29' E 010°13'1616.0
2014-Sep-15 18:33N 43°36' E 009°52'1716.7
2014-Sep-15 17:33N 43°52' E 009°51'1414.1
2014-Sep-15 16:33N 44°06' E 009°51'0 0.0
2014-Sep-15 15:32N 44°06' E 009°51'0 0.0
2014-Sep-15 14:32N 44°06' E 009°51'0 0.0
2014-Sep-15 13:31N 44°06' E 009°51'0 0.0
2014-Sep-15 12:31N 44°06' E 009°51'0 0.0
2014-Sep-15 11:33N 44°06' E 009°51'0 0.0
2014-Sep-15 10:33N 44°06' E 009°51'0 0.0
2014-Sep-15 09:33N 44°06' E 009°51'0 0.0
2014-Sep-15 08:32N 44°06' E 009°51'0 0.0
2014-Sep-15 07:32N 44°06' E 009°51'0 0.0
2014-Sep-15 06:31N 44°06' E 009°51'0 0.0
2014-Sep-15 05:31N 44°06' E 009°51'3 3.1
2014-Sep-15 04:33N 44°03' E 009°52'5 4.5
2014-Sep-15 03:33N 44°00' E 009°56'1110.7
2014-Sep-15 02:34N 43°50' E 009°52'1919.4
2014-Sep-15 01:34N 43°31' E 009°47'1818.4
2014-Sep-15 00:33N 43°13' E 009°53'1919.2
2014-Sep-14 23:33N 42°55' E 010°01'2018.4
2014-Sep-14 22:28N 42°37' E 010°14'1819.1
2014-Sep-14 21:32N 42°25' E 010°32'1919.1
2014-Sep-14 20:32N 42°11' E 010°50'2019.3
2014-Sep-14 19:30N 41°57' E 011°10'11919.0
2014-Sep-14 13:13N 40°34' E 013°03'1318.8
2014-Sep-14 12:33N 40°25' E 013°15'128 3.3
2014-Sep-12 21:30N 38°22' E 013°58'1818.9
2014-Sep-12 20:33N 38°23' E 013°35'1919.1
2014-Sep-12 19:33N 38°25' E 013°11'2119.2
2014-Sep-12 18:29N 38°26' E 012°45'13319.2
2014-Sep-12 11:32N 38°36' E 009°54'1919.3
2014-Sep-12 10:33N 38°38' E 009°30'2019.3
2014-Sep-12 09:33N 38°39' E 009°05'1919.2
2014-Sep-12 08:33N 38°40' E 008°41'17619.1
2014-Sep-11 23:20N 38°53' E 004°56'1518.6
2014-Sep-11 22:32N 38°54' E 004°36'1818.6
2014-Sep-11 21:33N 38°56' E 004°13'1918.7
2014-Sep-11 20:33N 38°57' E 003°49'1918.8
2014-Sep-11 19:33N 38°59' E 003°25'1918.9
2014-Sep-11 18:33N 38°60' E 003°01'1918.6
2014-Sep-11 17:33N 39°04' E 002°37'1918.7
2014-Sep-11 16:33N 39°08' E 002°14'1918.7
2014-Sep-11 15:33N 39°11' E 001°50'1919.1
2014-Sep-11 14:33N 39°14' E 001°26'1919.1
2014-Sep-11 13:33N 39°16' E 001°01'5618.7
2014-Sep-11 10:32N 39°24' W 000°11'7 1.6
2014-Sep-11 06:23N 39°26' W 000°19'0 0.0
2014-Sep-11 05:16N 39°26' W 000°19'0 0.0
2014-Sep-11 04:03N 39°26' W 000°19'0 0.0
2014-Sep-11 03:33N 39°26' W 000°19'0 0.0
2014-Sep-11 02:21N 39°26' W 000°19'0 0.0
2014-Sep-11 01:26N 39°26' W 000°19'0 0.0
2014-Sep-10 22:25N 39°26' W 000°19'0 0.0
2014-Sep-10 21:06N 39°26' W 000°19'0 0.0
2014-Sep-10 16:32N 39°26' W 000°19'0 0.0
2014-Sep-10 13:30N 39°26' W 000°19'0 0.0
2014-Sep-10 10:32N 39°26' W 000°19'0 0.0
2014-Sep-10 07:12N 39°26' W 000°19'0 0.0
2014-Sep-10 06:24N 39°26' W 000°19'0 0.0
2014-Sep-10 04:08N 39°26' W 000°19'0 0.0
2014-Sep-10 03:26N 39°26' W 000°19'0 0.0
2014-Sep-10 00:31N 39°26' W 000°19'0 0.0
2014-Sep-09 23:30N 39°26' W 000°19'0 0.0
2014-Sep-09 22:32N 39°26' W 000°19'  
Track history (hours):
 
Tides and Currents Weather Stations Pressure Air Temp Water Temp Dewpoint Dewpoint Depression Visibility Wind Speed Wind Dir Waves Ship Positions

MSC Luisa

Last reported at 2014-Sep-19 15:13 UTC. Time now 2014-Sep-20 10:01 UTC.
Position N 41°09' E 029°04'.

Length 300 m; draft 9.2 m.

Type: Ship. MMSI: 355308000.

Date/timePositionNaut miles runAvg speedWind from/ knotsBaromVisibWave heightAir tempDewpointWater temp
2014-Sep-19 15:13N 41°09' E 029°04'710.6
2014-Sep-19 14:32N 41°02' E 029°00'9 9.6
2014-Sep-19 13:33N 40°53' E 028°55'7 7.3
2014-Sep-19 12:32N 40°50' E 028°46'26414.7
2014-Sep-18 18:33N 37°52' E 024°35'1717.5
2014-Sep-18 17:33N 37°35' E 024°27'1717.4
2014-Sep-18 16:33N 37°20' E 024°16'1717.5
2014-Sep-18 15:34N 37°04' E 024°07'1817.2
2014-Sep-18 14:32N 36°48' E 023°58'1717.0
2014-Sep-18 13:33N 36°39' E 023°41'49715.9
2014-Sep-17 06:14N 39°44' E 013°54'21117.5
2014-Sep-16 18:11N 42°16' E 010°39'1418.0
2014-Sep-16 17:25N 42°27' E 010°27'2317.6
2014-Sep-16 16:05N 42°44' E 010°05'917.2
2014-Sep-16 15:33N 42°53' E 010°04'1818.4
2014-Sep-16 14:33N 43°11' E 010°09'1818.2
2014-Sep-16 13:33N 43°29' E 010°13'7 6.9
2014-Sep-16 12:33N 43°34' E 010°18'0 0.0
2014-Sep-16 11:33N 43°34' E 010°18'0 0.0
2014-Sep-16 10:31N 43°34' E 010°18'0 0.0
2014-Sep-16 09:33N 43°34' E 010°18'0 0.0
2014-Sep-16 08:33N 43°34' E 010°18'0 0.0
2014-Sep-16 07:32N 43°34' E 010°18'0 0.0
2014-Sep-16 06:32N 43°34' E 010°18'0 0.2
2014-Sep-16 05:33N 43°34' E 010°19'5 4.6
2014-Sep-16 04:33N 43°30' E 010°16'0 0.2
2014-Sep-16 03:31N 43°30' E 010°16'0 0.0
2014-Sep-16 02:33N 43°30' E 010°16'0 0.0
2014-Sep-16 01:33N 43°30' E 010°16'0 0.0
2014-Sep-16 00:33N 43°30' E 010°16'0 0.0
2014-Sep-15 23:32N 43°30' E 010°16'0 0.0
2014-Sep-15 22:32N 43°30' E 010°16'0 0.0
2014-Sep-15 21:31N 43°30' E 010°16'0 0.0
2014-Sep-15 20:31N 43°30' E 010°16'2 2.3
2014-Sep-15 19:33N 43°29' E 010°13'1616.0
2014-Sep-15 18:33N 43°36' E 009°52'1716.7
2014-Sep-15 17:33N 43°52' E 009°51'1414.1
2014-Sep-15 16:33N 44°06' E 009°51'0 0.0
2014-Sep-15 15:32N 44°06' E 009°51'0 0.0
2014-Sep-15 14:32N 44°06' E 009°51'0 0.0
2014-Sep-15 13:31N 44°06' E 009°51'0 0.0
2014-Sep-15 12:31N 44°06' E 009°51'0 0.0
2014-Sep-15 11:33N 44°06' E 009°51'0 0.0
2014-Sep-15 10:33N 44°06' E 009°51'0 0.0
2014-Sep-15 09:33N 44°06' E 009°51'0 0.0
2014-Sep-15 08:32N 44°06' E 009°51'0 0.0
2014-Sep-15 07:32N 44°06' E 009°51'0 0.0
2014-Sep-15 06:31N 44°06' E 009°51'0 0.0
2014-Sep-15 05:31N 44°06' E 009°51'3 3.1
2014-Sep-15 04:33N 44°03' E 009°52'5 4.5
2014-Sep-15 03:33N 44°00' E 009°56'1110.7
2014-Sep-15 02:34N 43°50' E 009°52'1919.4
2014-Sep-15 01:34N 43°31' E 009°47'1818.4
2014-Sep-15 00:33N 43°13' E 009°53'1919.2
2014-Sep-14 23:33N 42°55' E 010°01'2018.4
2014-Sep-14 22:28N 42°37' E 010°14'1819.1
2014-Sep-14 21:32N 42°25' E 010°32'1919.1
2014-Sep-14 20:32N 42°11' E 010°50'2019.3
2014-Sep-14 19:30N 41°57' E 011°10'11919.0
2014-Sep-14 13:13N 40°34' E 013°03'1318.8
2014-Sep-14 12:33N 40°25' E 013°15'128 3.3
2014-Sep-12 21:30N 38°22' E 013°58'1818.9
2014-Sep-12 20:33N 38°23' E 013°35'1919.1
2014-Sep-12 19:33N 38°25' E 013°11'2119.2
2014-Sep-12 18:29N 38°26' E 012°45'13319.2
2014-Sep-12 11:32N 38°36' E 009°54'1919.3
2014-Sep-12 10:33N 38°38' E 009°30'2019.3
2014-Sep-12 09:33N 38°39' E 009°05'1919.2
2014-Sep-12 08:33N 38°40' E 008°41'17619.1
2014-Sep-11 23:20N 38°53' E 004°56'1518.6
2014-Sep-11 22:32N 38°54' E 004°36'1818.6
2014-Sep-11 21:33N 38°56' E 004°13'1918.7
2014-Sep-11 20:33N 38°57' E 003°49'1918.8
2014-Sep-11 19:33N 38°59' E 003°25'1918.9
2014-Sep-11 18:33N 38°60' E 003°01'1918.6
2014-Sep-11 17:33N 39°04' E 002°37'1918.7
2014-Sep-11 16:33N 39°08' E 002°14'1918.7
2014-Sep-11 15:33N 39°11' E 001°50'1919.1
2014-Sep-11 14:33N 39°14' E 001°26'1919.1
2014-Sep-11 13:33N 39°16' E 001°01'5618.7
2014-Sep-11 10:32N 39°24' W 000°11'7 1.6
2014-Sep-11 06:23N 39°26' W 000°19'0 0.0
2014-Sep-11 05:16N 39°26' W 000°19'0 0.0
2014-Sep-11 04:03N 39°26' W 000°19'0 0.0
2014-Sep-11 03:33N 39°26' W 000°19'0 0.0
2014-Sep-11 02:21N 39°26' W 000°19'0 0.0
2014-Sep-11 01:26N 39°26' W 000°19'0 0.0
2014-Sep-10 22:25N 39°26' W 000°19'0 0.0
2014-Sep-10 21:06N 39°26' W 000°19'0 0.0
2014-Sep-10 16:32N 39°26' W 000°19'0 0.0
2014-Sep-10 13:30N 39°26' W 000°19'0 0.0
2014-Sep-10 10:32N 39°26' W 000°19'0 0.0
2014-Sep-10 07:12N 39°26' W 000°19'0 0.0
2014-Sep-10 06:24N 39°26' W 000°19'0 0.0
2014-Sep-10 04:08N 39°26' W 000°19'0 0.0
2014-Sep-10 03:26N 39°26' W 000°19'0 0.0
2014-Sep-10 00:31N 39°26' W 000°19'0 0.0
2014-Sep-09 23:30N 39°26' W 000°19'0 0.0
2014-Sep-09 22:32N 39°26' W 000°19'  

Dump ship's entire track history